Time;durP1;ratioP1;P1;durP2;ratioP2;P2;SDS_P1;SDS_P2;PMS_P1;PMS_P2;Temp;Humidity;BMP_temperature;BMP_pressure;BME280_temperature;BME280_humidity;BME280_pressure;Samples;Min_cycle;Max_cycle;Signal;HPM_P1;HPM_P2
2022/03/16 00:01:13;;;;;;;2.20;2.00;;;8.70;99.90;8.10;98965.00;;;;5118553;28;20222;-75
2022/03/16 00:03:40;;;;;;;2.70;2.60;;;8.70;99.90;8.10;98969.00;;;;5127486;28;20219;-79
2022/03/16 00:06:06;;;;;;;3.00;2.10;;;8.70;99.90;8.00;98964.00;;;;5123809;28;20217;-78
2022/03/16 00:08:33;;;;;;;2.73;2.57;;;8.70;99.90;8.00;98970.00;;;;5115682;28;20190;-76
2022/03/16 00:11:00;;;;;;;2.40;2.13;;;8.70;99.90;8.10;98970.00;;;;5116394;28;20278;-79
2022/03/16 00:13:28;;;;;;;2.10;1.80;;;8.70;99.90;8.10;98972.00;;;;5115803;28;20198;-78
2022/03/16 00:15:57;;;;;;;2.10;2.00;;;8.70;99.90;8.00;98971.00;;;;5128251;28;20219;-78
2022/03/16 00:18:23;;;;;;;3.07;2.77;;;8.70;99.90;8.00;98973.00;;;;5127919;28;20226;-78
2022/03/16 00:20:50;;;;;;;2.47;1.67;;;8.70;99.90;8.10;98980.00;;;;5116177;28;20286;-77
2022/03/16 00:23:16;;;;;;;1.60;1.53;;;8.70;99.90;8.00;98975.00;;;;5115501;28;20198;-78
2022/03/16 00:25:43;;;;;;;1.97;1.87;;;8.70;99.90;7.90;98966.00;;;;5114840;28;20229;-76
2022/03/16 00:28:12;;;;;;;1.97;1.83;;;8.60;99.90;7.90;98970.00;;;;5114925;28;20350;-77
2022/03/16 00:30:39;;;;;;;3.10;2.80;;;8.60;99.90;7.90;98976.00;;;;5114982;28;20197;-77
2022/03/16 00:33:05;;;;;;;3.20;3.00;;;8.60;99.90;7.90;98973.00;;;;5096815;28;20632;-78
2022/03/16 00:35:32;;;;;;;8.70;2.50;;;8.60;99.90;7.90;98980.00;;;;5115064;28;20628;-77
2022/03/16 00:37:58;;;;;;;2.90;2.70;;;8.60;99.90;7.90;98964.00;;;;5114881;28;20637;-77
2022/03/16 00:40:25;;;;;;;1.97;1.87;;;8.60;99.90;7.90;98964.00;;;;5114711;28;20249;-77
2022/03/16 00:42:54;;;;;;;1.83;1.73;;;8.60;99.90;7.90;98968.00;;;;5114819;28;20263;-77
2022/03/16 00:45:21;;;;;;;2.47;2.27;;;8.60;99.90;7.90;98974.00;;;;5114773;28;20218;-77
2022/03/16 00:47:48;;;;;;;2.50;2.40;;;8.60;99.90;7.90;98968.00;;;;5114768;28;20189;-77
2022/03/16 00:50:14;;;;;;;2.40;2.30;;;8.60;99.90;7.90;98972.00;;;;5114550;28;20190;-76
2022/03/16 00:52:43;;;;;;;2.17;2.07;;;8.60;99.90;7.90;98967.00;;;;5114341;28;20221;-77
2022/03/16 00:55:10;;;;;;;2.47;2.27;;;8.60;99.90;7.90;98971.00;;;;5114335;28;20202;-77
2022/03/16 00:57:37;;;;;;;2.37;2.17;;;8.60;99.90;7.90;98964.00;;;;5114609;28;20782;-78
2022/03/16 01:00:06;;;;;;;2.23;2.13;;;8.60;99.90;7.80;98955.00;;;;5114231;28;20292;-77
2022/03/16 01:02:36;;;;;;;3.57;3.37;;;8.60;99.90;7.90;98958.00;;;;5096683;28;20241;-77
2022/03/16 01:05:02;;;;;;;4.77;3.83;;;8.60;99.90;7.90;98955.00;;;;5114054;28;20233;-79
2022/03/16 01:07:29;;;;;;;3.00;2.80;;;8.60;99.90;7.90;98949.00;;;;5114194;28;20194;-78
2022/03/16 01:09:58;;;;;;;3.37;2.33;;;8.60;99.90;7.90;98947.00;;;;5114250;28;20634;-77
2022/03/16 01:12:25;;;;;;;2.60;2.40;;;8.60;99.90;7.90;98947.00;;;;5114276;28;20379;-76
2022/03/16 01:14:52;;;;;;;2.80;2.60;;;8.60;99.90;7.90;98956.00;;;;5114163;28;20630;-77
2022/03/16 01:17:21;;;;;;;2.57;2.47;;;8.60;99.90;7.90;98954.00;;;;5114125;28;20664;-77
2022/03/16 01:19:48;;;;;;;4.60;2.53;;;8.50;99.90;7.80;98946.00;;;;5114101;28;20230;-77
2022/03/16 01:22:14;;;;;;;2.97;2.77;;;8.50;99.90;7.80;98946.00;;;;5114090;28;20222;-78
2022/03/16 01:24:41;;;;;;;3.13;2.27;;;8.50;99.90;7.80;98950.00;;;;5113964;28;20656;-78
2022/03/16 01:27:07;;;;;;;2.90;2.70;;;8.50;99.90;7.80;98944.00;;;;5098444;28;20669;-77
2022/03/16 01:29:36;;;;;;;3.30;3.00;;;8.50;99.90;7.80;98944.00;;;;5117704;28;20281;-77
2022/03/16 01:32:03;;;;;;;2.57;2.40;;;8.50;99.90;7.70;98939.00;;;;5117582;28;20221;-77
2022/03/16 01:34:30;;;;;;;2.87;2.67;;;8.50;99.90;7.80;98946.00;;;;5117603;28;20178;-77
2022/03/16 01:36:57;;;;;;;3.60;3.10;;;8.50;99.90;7.80;98942.00;;;;5117910;28;20245;-77
2022/03/16 01:39:24;;;;;;;4.00;2.70;;;8.50;99.90;7.80;98943.00;;;;5117649;28;20202;-77
2022/03/16 01:41:50;;;;;;;1.97;1.87;;;8.50;99.90;7.80;98951.00;;;;5117405;28;20307;-77
2022/03/16 01:44:17;;;;;;;1.77;1.37;;;8.50;99.90;7.80;98943.00;;;;5117322;28;20193;-77
2022/03/16 01:46:44;;;;;;;2.20;2.10;;;8.50;99.90;7.70;98949.00;;;;5117492;28;20664;-76
2022/03/16 01:49:10;;;;;;;2.07;1.97;;;8.50;99.90;7.70;98951.00;;;;5117502;28;20293;-77
2022/03/16 01:51:37;;;;;;;3.17;2.80;;;8.40;99.90;7.80;98951.00;;;;5117391;28;20231;-77
2022/03/16 01:54:07;;;;;;;2.57;2.37;;;8.50;99.90;7.70;98960.00;;;;5099417;28;20212;-77
2022/03/16 01:56:35;;;;;;;1.77;1.67;;;8.40;99.90;7.70;98960.00;;;;5117320;28;20644;-76
2022/03/16 01:59:02;;;;;;;3.50;3.20;;;8.40;99.90;7.70;98959.00;;;;5099227;28;20238;-77
2022/03/16 02:01:28;;;;;;;3.07;2.87;;;8.40;99.90;7.60;98956.00;;;;5117039;28;20273;-78
2022/03/16 02:03:57;;;;;;;3.63;3.33;;;8.40;99.90;7.70;98959.00;;;;5117160;28;20518;-77
2022/03/16 02:06:24;;;;;;;3.03;2.90;;;8.40;99.90;7.70;98949.00;;;;5117097;28;20276;-77
2022/03/16 02:08:50;;;;;;;4.07;3.77;;;8.40;99.90;7.70;98958.00;;;;5117250;28;20210;-76
2022/03/16 02:11:18;;;;;;;3.47;3.20;;;8.40;99.90;7.70;98960.00;;;;5116910;28;20431;-77
2022/03/16 02:13:46;;;;;;;3.27;3.00;;;8.40;99.90;7.60;98959.00;;;;5117045;28;20219;-77
2022/03/16 02:16:15;;;;;;;3.33;3.13;;;8.40;99.90;7.70;98958.00;;;;5099093;28;20254;-76
2022/03/16 02:18:42;;;;;;;3.80;3.20;;;8.40;99.90;7.70;98958.00;;;;5116964;28;20309;-76
2022/03/16 02:21:11;;;;;;;3.13;2.90;;;8.40;99.90;7.70;98946.00;;;;5117040;28;20271;-77
2022/03/16 02:23:38;;;;;;;3.80;3.30;;;8.40;99.90;7.80;98950.00;;;;5117142;28;20255;-76
2022/03/16 02:26:05;;;;;;;2.37;2.27;;;8.40;99.90;7.80;98952.00;;;;5098865;28;20594;-77
2022/03/16 02:28:32;;;;;;;6.87;3.23;;;8.40;99.90;7.70;98954.00;;;;5099324;28;20209;-77
2022/03/16 02:30:59;;;;;;;7.17;3.97;;;8.40;99.90;7.70;98951.00;;;;5117179;28;20192;-77
2022/03/16 02:33:26;;;;;;;5.77;2.83;;;8.40;99.90;7.70;98947.00;;;;5099031;28;20347;-77
2022/03/16 02:35:53;;;;;;;3.00;2.77;;;8.40;99.90;7.70;98953.00;;;;5117000;28;20194;-77
2022/03/16 02:38:20;;;;;;;4.13;2.90;;;8.40;99.90;7.70;98948.00;;;;5116263;28;20250;-77
2022/03/16 02:40:48;;;;;;;3.03;2.83;;;8.40;99.90;7.70;98951.00;;;;5116627;28;20229;-77
2022/03/16 02:43:14;;;;;;;3.30;3.10;;;8.40;99.90;7.70;98954.00;;;;5098568;28;20217;-76
2022/03/16 02:45:41;;;;;;;5.43;3.43;;;8.40;99.90;7.70;98947.00;;;;5116379;28;20308;-77
2022/03/16 02:48:07;;;;;;;3.77;3.33;;;8.40;99.90;7.60;98953.00;;;;5116569;28;20193;-77
2022/03/16 02:50:34;;;;;;;2.10;2.00;;;8.40;99.90;7.60;98949.00;;;;5116513;28;20202;-77
2022/03/16 02:53:01;;;;;;;2.83;2.30;;;8.30;99.90;7.60;98939.00;;;;5117177;28;20714;-78
2022/03/16 02:55:30;;;;;;;6.27;4.03;;;8.30;99.90;7.60;98952.00;;;;5116984;28;20266;-77
2022/03/16 02:57:57;;;;;;;3.30;3.10;;;8.30;99.90;7.60;98953.00;;;;5117256;28;20282;-78
2022/03/16 03:00:26;;;;;;;3.10;2.90;;;8.40;99.90;7.60;98946.00;;;;5117002;28;20225;-77
2022/03/16 03:02:53;;;;;;;4.37;3.97;;;8.30;99.90;7.60;98955.00;;;;5099097;28;20565;-78
2022/03/16 03:05:20;;;;;;;8.43;4.20;;;8.30;99.90;7.60;98953.00;;;;5116245;28;20297;-77
2022/03/16 03:07:47;;;;;;;2.40;2.20;;;8.30;99.90;7.60;98955.00;;;;5116309;28;20237;-77
2022/03/16 03:10:13;;;;;;;3.77;3.57;;;8.30;99.90;7.60;98962.00;;;;5116488;28;20198;-77
2022/03/16 03:12:40;;;;;;;5.50;3.90;;;8.30;99.90;7.50;98959.00;;;;5116440;28;20275;-78
2022/03/16 03:15:10;;;;;;;2.87;2.67;;;8.30;99.90;7.60;98957.00;;;;5117115;28;20232;-78
2022/03/16 03:17:37;;;;;;;3.80;3.60;;;8.30;99.90;7.60;98954.00;;;;5117434;28;20241;-78
2022/03/16 03:20:07;;;;;;;2.97;2.77;;;8.30;99.90;7.60;98940.00;;;;5118547;28;20265;-80
2022/03/16 03:22:36;;;;;;;4.03;2.83;;;8.30;99.90;7.60;98963.00;;;;5099676;28;20214;-79
2022/03/16 03:25:04;;;;;;;3.40;3.10;;;8.30;99.90;7.50;98968.00;;;;5118231;28;20213;-79
2022/03/16 03:27:32;;;;;;;3.57;2.40;;;8.20;99.90;7.60;98965.00;;;;5117759;28;20198;-77
2022/03/16 03:30:01;;;;;;;5.70;4.00;;;8.30;99.90;7.60;98970.00;;;;5117251;28;20206;-77
2022/03/16 03:32:28;;;;;;;4.93;4.50;;;8.30;99.90;7.50;98972.00;;;;5098619;28;20214;-80
2022/03/16 03:34:57;;;;;;;4.27;3.97;;;8.30;99.90;7.50;98974.00;;;;5116389;28;20350;-80
2022/03/16 03:37:25;;;;;;;3.93;3.63;;;8.20;99.90;7.50;98970.00;;;;5116454;28;20262;-78
2022/03/16 03:39:52;;;;;;;4.17;3.87;;;8.30;99.90;7.60;98968.00;;;;5116038;28;20255;-76
2022/03/16 03:42:19;;;;;;;5.07;3.60;;;8.20;99.90;7.50;98968.00;;;;5115617;28;20214;-76
2022/03/16 03:44:45;;;;;;;3.20;3.00;;;8.30;99.90;7.50;98969.00;;;;5115701;28;20225;-78
2022/03/16 03:47:12;;;;;;;5.27;4.53;;;8.30;99.90;7.50;98967.00;;;;5115618;28;20587;-78
2022/03/16 03:49:41;;;;;;;4.13;3.80;;;8.20;99.90;7.50;98963.00;;;;5114764;28;20210;-78
2022/03/16 03:52:11;;;;;;;4.63;4.03;;;8.20;99.90;7.50;98949.00;;;;5115835;28;20264;-77
2022/03/16 03:54:40;;;;;;;4.90;4.33;;;8.20;99.90;7.50;98967.00;;;;5115564;28;20284;-77
2022/03/16 03:57:09;;;;;;;4.17;2.57;;;8.20;99.90;7.50;98964.00;;;;5097615;28;20205;-78
2022/03/16 03:59:36;;;;;;;2.63;2.53;;;8.20;99.90;7.50;98972.00;;;;5115493;28;20210;-78
2022/03/16 04:02:02;;;;;;;3.20;2.97;;;8.20;99.90;7.50;98974.00;;;;5115257;28;20240;-79
2022/03/16 04:04:29;;;;;;;2.23;2.13;;;8.20;99.90;7.50;98955.00;;;;5096941;28;20234;-77
2022/03/16 04:06:56;;;;;;;3.77;3.27;;;8.20;99.90;7.50;98980.00;;;;5116232;28;20277;-78
2022/03/16 04:09:23;;;;;;;4.87;4.30;;;8.20;99.90;7.50;98972.00;;;;5123662;28;20241;-79
2022/03/16 04:11:49;;;;;;;2.77;2.57;;;8.20;99.90;7.50;98971.00;;;;5127673;28;20286;-80
2022/03/16 04:14:16;;;;;;;3.57;3.37;;;8.20;99.90;7.50;98971.00;;;;5118550;28;20202;-78
2022/03/16 04:16:43;;;;;;;3.53;3.20;;;8.20;99.90;7.40;98976.00;;;;5115911;28;20296;-78
2022/03/16 04:19:10;;;;;;;3.83;3.57;;;8.20;99.90;7.40;98980.00;;;;5116769;28;20190;-79
2022/03/16 04:21:36;;;;;;;6.13;3.10;;;8.20;99.90;7.40;98977.00;;;;5123156;28;20327;-79
2022/03/16 04:24:04;;;;;;;5.67;5.17;;;8.10;99.90;7.40;98986.00;;;;5127463;28;20240;-78
2022/03/16 04:26:31;;;;;;;5.23;4.60;;;8.10;99.90;7.40;98987.00;;;;5121783;28;20281;-79
2022/03/16 04:28:57;;;;;;;4.10;3.80;;;8.20;99.90;7.50;98984.00;;;;5115416;28;20225;-78
2022/03/16 04:31:24;;;;;;;2.63;2.43;;;8.20;99.90;7.50;98987.00;;;;5114851;28;20676;-78
2022/03/16 04:33:50;;;;;;;3.30;3.10;;;8.20;99.90;7.60;98980.00;;;;5114778;28;20683;-79
2022/03/16 04:36:17;;;;;;;5.17;3.60;;;8.30;99.90;7.50;98981.00;;;;5114833;28;20210;-78
2022/03/16 04:38:44;;;;;;;3.70;3.40;;;8.20;99.90;7.50;98987.00;;;;5114724;28;20241;-78
2022/03/16 04:41:12;;;;;;;3.80;3.50;;;8.20;99.90;7.50;98983.00;;;;5114468;28;20257;-78
2022/03/16 04:43:38;;;;;;;5.57;5.07;;;8.20;99.90;7.50;98984.00;;;;5114509;28;20216;-78
2022/03/16 04:46:05;;;;;;;4.43;3.83;;;8.20;99.90;7.50;98983.00;;;;5114597;28;20211;-78
2022/03/16 04:48:31;;;;;;;3.70;3.37;;;8.20;99.90;7.50;98980.00;;;;5114542;28;20289;-79
2022/03/16 04:50:57;;;;;;;3.60;3.30;;;8.20;99.90;7.50;98988.00;;;;5114617;28;20312;-78
2022/03/16 04:53:24;;;;;;;4.03;3.67;;;8.20;99.90;7.50;98987.00;;;;5114442;28;20695;-78
2022/03/16 04:55:50;;;;;;;4.73;4.33;;;8.20;99.90;7.50;98985.00;;;;5096609;28;20194;-78
2022/03/16 04:58:20;;;;;;;3.43;3.23;;;8.20;99.90;7.40;98982.00;;;;5114352;28;20226;-78
2022/03/16 05:00:46;;;;;;;9.40;4.37;;;8.20;99.90;7.40;98987.00;;;;5114291;28;20317;-76
2022/03/16 05:03:13;;;;;;;3.07;2.87;;;8.20;99.90;7.40;98982.00;;;;5114174;28;20298;-78
2022/03/16 05:05:39;;;;;;;3.27;3.10;;;8.10;99.90;7.50;98976.00;;;;5114575;28;20198;-78
2022/03/16 05:08:06;;;;;;;3.63;3.30;;;8.20;99.90;7.40;98986.00;;;;5114316;28;20209;-78
2022/03/16 05:10:33;;;;;;;3.63;3.43;;;8.20;99.90;7.50;98988.00;;;;5114029;28;20259;-78
2022/03/16 05:12:59;;;;;;;6.33;4.00;;;8.10;99.90;7.50;98978.00;;;;5096451;28;20205;-78
2022/03/16 05:15:26;;;;;;;5.90;4.27;;;8.20;99.90;7.30;98979.00;;;;5114064;28;20189;-78
2022/03/16 05:17:53;;;;;;;5.23;4.77;;;8.10;99.90;7.30;98979.00;;;;5114067;28;20224;-78
2022/03/16 05:20:20;;;;;;;4.10;3.83;;;8.10;99.90;7.40;98976.00;;;;5114154;28;20190;-78
2022/03/16 05:22:51;;;;;;;2.70;2.60;;;8.10;99.90;7.40;98980.00;;;;5114187;28;20205;-78
2022/03/16 05:25:20;;;;;;;6.23;3.30;;;8.10;99.90;7.50;98986.00;;;;5114179;28;20198;-78
2022/03/16 05:27:50;;;;;;;3.70;3.43;;;8.20;99.90;7.60;98981.00;;;;5114129;28;20633;-78
2022/03/16 05:30:17;;;;;;;7.27;4.87;;;8.20;99.90;7.40;98980.00;;;;5114042;28;20239;-78
2022/03/16 05:32:46;;;;;;;4.90;3.57;;;8.10;99.90;7.40;98985.00;;;;5114139;28;20517;-78
2022/03/16 05:35:14;;;;;;;5.30;4.90;;;8.20;99.90;7.40;98987.00;;;;5114288;28;20202;-78
2022/03/16 05:37:41;;;;;;;4.47;3.47;;;8.10;99.90;7.50;98997.00;;;;5113879;28;20222;-78
2022/03/16 05:40:10;;;;;;;4.47;4.07;;;8.20;99.90;7.50;98995.00;;;;5113884;28;20221;-78
2022/03/16 05:42:37;;;;;;;3.63;3.33;;;8.10;99.90;7.30;98997.00;;;;5114038;28;20209;-78
2022/03/16 05:45:06;;;;;;;10.20;4.50;;;8.10;99.90;7.30;99000.00;;;;5113841;28;20224;-77
2022/03/16 05:47:33;;;;;;;3.50;3.17;;;8.10;99.90;7.30;98996.00;;;;5113723;28;20190;-78
2022/03/16 05:50:00;;;;;;;2.93;2.73;;;8.10;99.90;7.40;99001.00;;;;5113824;28;20202;-76
2022/03/16 05:52:28;;;;;;;3.93;3.73;;;8.10;99.90;7.40;99014.00;;;;5114075;28;20196;-78
2022/03/16 05:54:56;;;;;;;4.13;3.80;;;8.10;99.90;7.40;99002.00;;;;5113752;28;20206;-77
2022/03/16 05:57:23;;;;;;;4.77;4.37;;;8.10;99.90;7.40;99009.00;;;;5113522;28;20244;-77
2022/03/16 05:59:50;;;;;;;3.83;3.53;;;8.20;99.90;7.40;99002.00;;;;5113737;28;20652;-77
2022/03/16 06:02:17;;;;;;;6.37;4.23;;;8.10;99.90;7.40;98999.00;;;;5113564;28;20264;-76
2022/03/16 06:04:44;;;;;;;4.00;3.60;;;8.10;99.90;7.30;99016.00;;;;5113676;28;20225;-79
2022/03/16 06:07:12;;;;;;;4.07;3.57;;;8.10;99.90;7.30;99010.00;;;;5114429;28;20246;-77
2022/03/16 06:09:40;;;;;;;5.67;4.10;;;8.10;99.90;7.50;99008.00;;;;5113553;28;20190;-77
2022/03/16 06:12:08;;;;;;;2.83;2.63;;;8.20;99.90;7.50;99009.00;;;;5114339;28;20205;-79
2022/03/16 06:14:37;;;;;;;10.30;2.93;;;8.20;99.90;7.50;99013.00;;;;5117069;28;20208;-79
2022/03/16 06:17:04;;;;;;;3.27;3.07;;;8.20;99.90;7.50;99005.00;;;;5117032;28;20751;-78
2022/03/16 06:19:31;;;;;;;8.17;3.97;;;8.20;99.90;7.50;99022.00;;;;5116997;28;20214;-79
2022/03/16 06:21:57;;;;;;;2.80;2.60;;;8.20;99.90;7.50;99014.00;;;;5116829;28;20217;-78
2022/03/16 06:24:25;;;;;;;2.80;2.60;;;8.20;99.90;7.50;99025.00;;;;5116863;28;20235;-78
2022/03/16 06:26:51;;;;;;;5.93;2.90;;;8.10;99.90;7.50;99017.00;;;;5116965;28;20341;-78
2022/03/16 06:29:18;;;;;;;2.93;2.77;;;8.20;99.90;7.50;99016.00;;;;5117939;28;20205;-76
2022/03/16 06:31:44;;;;;;;2.30;2.20;;;8.20;99.90;7.50;99028.00;;;;5117306;28;20186;-77
2022/03/16 06:34:11;;;;;;;4.17;3.83;;;8.20;99.90;7.50;99032.00;;;;5118009;28;20200;-79
2022/03/16 06:36:37;;;;;;;3.43;1.93;;;8.20;99.90;7.40;99020.00;;;;5116942;28;20190;-77
2022/03/16 06:39:04;;;;;;;2.43;2.30;;;8.20;99.90;7.40;99028.00;;;;5117236;28;20213;-77
2022/03/16 06:41:31;;;;;;;2.70;2.00;;;8.10;99.90;7.30;99029.00;;;;5118037;28;20309;-76
2022/03/16 06:43:58;;;;;;;2.87;2.50;;;8.10;99.90;7.30;99029.00;;;;5117681;28;20222;-78
2022/03/16 06:46:27;;;;;;;3.00;2.80;;;8.00;99.90;7.30;99035.00;;;;5118933;28;20269;-76
2022/03/16 06:48:53;;;;;;;2.40;2.23;;;8.00;99.90;7.30;99023.00;;;;5117667;28;20260;-77
2022/03/16 06:51:22;;;;;;;3.57;3.27;;;8.00;99.90;7.30;99029.00;;;;5117175;28;20226;-76
2022/03/16 06:53:49;;;;;;;3.53;3.33;;;8.10;99.90;7.40;99031.00;;;;5117507;28;20204;-76
2022/03/16 06:56:15;;;;;;;2.13;1.93;;;8.10;99.90;7.50;99034.00;;;;5117158;28;20206;-77
2022/03/16 06:58:45;;;;;;;2.70;2.47;;;8.10;99.90;7.30;99043.00;;;;5116607;28;20681;-77
2022/03/16 07:01:14;;;;;;;1.83;1.77;;;8.10;99.90;7.40;99047.00;;;;5116553;28;20214;-79
2022/03/16 07:03:40;;;;;;;3.50;3.00;;;8.10;99.90;7.50;99053.00;;;;5116335;28;20264;-77
2022/03/16 07:06:08;;;;;;;2.13;2.03;;;8.10;99.90;7.50;99044.00;;;;5116265;28;20277;-78
2022/03/16 07:08:35;;;;;;;2.00;1.90;;;8.20;99.90;7.50;99051.00;;;;5116025;28;20240;-76
2022/03/16 07:11:01;;;;;;;2.43;2.33;;;8.20;99.90;7.60;99040.00;;;;5116185;28;20304;-78
2022/03/16 07:13:30;;;;;;;2.17;2.07;;;8.20;99.90;7.70;99039.00;;;;5116019;28;20672;-76
2022/03/16 07:15:57;;;;;;;3.03;2.83;;;8.20;99.90;7.70;99049.00;;;;5098063;28;20202;-77
2022/03/16 07:18:24;;;;;;;7.40;3.10;;;8.30;99.90;7.60;99041.00;;;;5115964;28;20194;-77
2022/03/16 07:20:52;;;;;;;3.60;3.30;;;8.30;99.90;7.60;99050.00;;;;5115873;28;20346;-77
2022/03/16 07:23:19;;;;;;;3.20;2.93;;;8.30;99.90;7.60;99062.00;;;;5114983;28;20729;-77
2022/03/16 07:25:48;;;;;;;2.97;2.87;;;8.30;99.90;7.60;99039.00;;;;5115541;28;20280;-76
2022/03/16 07:28:16;;;;;;;2.90;2.70;;;8.30;99.90;7.70;99065.00;;;;5116623;28;20281;-75
2022/03/16 07:30:43;;;;;;;2.57;2.47;;;8.40;99.90;7.80;99064.00;;;;5115999;28;20288;-76
2022/03/16 07:33:14;;;;;;;3.03;2.83;;;8.40;99.90;7.70;99068.00;;;;5116116;28;20643;-75
2022/03/16 07:35:41;;;;;;;4.17;2.80;;;8.40;99.90;7.70;99069.00;;;;5116639;28;20334;-77
2022/03/16 07:38:09;;;;;;;3.40;3.13;;;8.40;99.90;7.80;99070.00;;;;5120368;28;20242;-77
2022/03/16 07:40:36;;;;;;;2.67;2.47;;;8.40;99.90;7.80;99069.00;;;;5126047;28;20228;-77
2022/03/16 07:43:04;;;;;;;2.00;1.90;;;8.40;99.90;7.80;99074.00;;;;5118672;28;20198;-74
2022/03/16 07:45:31;;;;;;;2.97;2.73;;;8.50;99.90;7.80;99081.00;;;;5116111;28;20255;-73
2022/03/16 07:47:58;;;;;;;3.27;2.97;;;8.50;99.90;7.80;99074.00;;;;5116767;28;20308;-71
2022/03/16 07:50:26;;;;;;;2.90;2.57;;;8.50;99.90;7.80;99072.00;;;;5119817;28;20194;-70
2022/03/16 07:52:56;;;;;;;3.17;2.90;;;8.40;99.90;7.80;99067.00;;;;5115818;28;20202;-72
2022/03/16 07:55:22;;;;;;;2.63;2.43;;;8.50;99.90;7.80;99075.00;;;;5115667;28;20226;-73
2022/03/16 07:57:49;;;;;;;4.70;3.37;;;8.50;99.90;7.80;99081.00;;;;5097341;28;20633;-72
2022/03/16 08:00:17;;;;;;;3.20;3.00;;;8.50;99.90;8.00;99078.00;;;;5115093;28;20343;-71
2022/03/16 08:02:46;;;;;;;2.90;2.70;;;8.60;99.90;7.90;99084.00;;;;5115213;28;20215;-70
2022/03/16 08:05:14;;;;;;;3.33;2.70;;;8.60;99.90;7.80;99092.00;;;;5115107;28;20234;-70
2022/03/16 08:07:42;;;;;;;3.07;2.87;;;8.50;99.90;7.80;99094.00;;;;5115015;28;20260;-71
2022/03/16 08:10:09;;;;;;;2.90;2.70;;;8.50;99.90;8.00;99085.00;;;;5115129;28;20202;-72
2022/03/16 08:12:36;;;;;;;4.40;4.07;;;8.60;99.90;7.90;99090.00;;;;5114974;28;20281;-71
2022/03/16 08:15:03;;;;;;;3.07;2.87;;;8.60;99.90;7.90;99082.00;;;;5114962;28;20649;-71
2022/03/16 08:17:30;;;;;;;3.33;2.93;;;8.60;99.90;8.00;99085.00;;;;5114950;28;20182;-70
2022/03/16 08:19:57;;;;;;;2.50;2.33;;;8.60;99.90;8.00;99073.00;;;;5114765;28;20611;-70
2022/03/16 08:22:29;;;;;;;4.57;3.87;;;8.60;99.90;8.00;99074.00;;;;5114844;28;20222;-71
2022/03/16 08:24:59;;;;;;;1.73;1.63;;;8.70;99.90;8.00;99068.00;;;;5114815;28;20194;-72
2022/03/16 08:27:26;;;;;;;5.17;2.23;;;8.70;99.90;8.10;99072.00;;;;5114786;28;20213;-71
2022/03/16 08:29:54;;;;;;;4.63;3.23;;;8.70;99.90;8.00;99037.00;;;;5114590;28;20250;-71
2022/03/16 08:32:21;;;;;;;2.07;1.97;;;8.70;99.90;8.10;99069.00;;;;5114593;28;20284;-71
2022/03/16 08:34:48;;;;;;;2.97;2.77;;;8.70;99.90;8.10;99067.00;;;;5114578;28;20243;-71
2022/03/16 08:37:15;;;;;;;2.93;2.60;;;8.80;99.90;8.20;99079.00;;;;5114492;28;20190;-71
2022/03/16 08:39:46;;;;;;;2.97;2.77;;;8.80;99.90;8.30;99075.00;;;;5114445;28;20217;-71
2022/03/16 08:42:16;;;;;;;3.33;3.13;;;8.80;99.90;8.40;99067.00;;;;5114478;28;20281;-70
2022/03/16 08:44:45;;;;;;;3.93;3.63;;;9.00;99.90;8.30;99074.00;;;;5114440;28;20200;-71
2022/03/16 08:47:16;;;;;;;2.67;2.47;;;9.00;99.60;8.50;99068.00;;;;5114409;28;20268;-71
2022/03/16 08:49:43;;;;;;;3.43;2.83;;;9.10;99.80;8.50;99069.00;;;;5114417;28;20532;-70
2022/03/16 08:52:10;;;;;;;2.93;2.50;;;9.10;99.50;8.50;99068.00;;;;5114432;28;20296;-72
2022/03/16 08:54:38;;;;;;;2.73;2.57;;;9.20;99.40;8.70;99059.00;;;;5114553;28;20206;-71
2022/03/16 08:57:05;;;;;;;5.40;2.43;;;9.30;99.70;8.80;99065.00;;;;5114382;28;20193;-71
2022/03/16 08:59:32;;;;;;;2.63;2.43;;;9.30;98.80;8.70;99064.00;;;;5096297;28;20229;-71
2022/03/16 09:01:58;;;;;;;11.17;3.93;;;9.40;98.40;8.80;99069.00;;;;5114323;28;20224;-72
2022/03/16 09:04:25;;;;;;;3.53;3.30;;;9.40;98.20;8.80;99070.00;;;;5096474;28;20230;-71
2022/03/16 09:06:51;;;;;;;3.17;2.97;;;9.40;97.40;8.90;99058.00;;;;5114009;28;20236;-72
2022/03/16 09:09:19;;;;;;;2.43;2.27;;;9.50;98.30;9.00;99068.00;;;;5096249;28;20710;-70
2022/03/16 09:11:46;;;;;;;3.83;2.67;;;9.60;98.30;9.00;99062.00;;;;5114090;28;20209;-70
2022/03/16 09:14:12;;;;;;;3.03;2.40;;;9.60;97.70;8.90;99068.00;;;;5114276;28;20280;-71
2022/03/16 09:16:39;;;;;;;3.17;2.93;;;9.60;97.40;9.00;99060.00;;;;5114142;28;20276;-70
2022/03/16 09:19:06;;;;;;;3.30;3.10;;;9.60;97.30;9.00;99067.00;;;;5113969;28;20225;-71
2022/03/16 09:21:32;;;;;;;3.50;2.87;;;9.60;97.00;9.10;99060.00;;;;5096108;28;20263;-72
2022/03/16 09:23:59;;;;;;;2.30;2.10;;;9.70;97.30;9.10;99059.00;;;;5114054;28;20190;-72
2022/03/16 09:26:26;;;;;;;2.50;2.33;;;9.70;97.50;9.30;99053.00;;;;5113946;28;20197;-74
2022/03/16 09:28:55;;;;;;;1.53;1.53;;;9.90;97.70;9.40;99059.00;;;;5113994;28;20276;-71
2022/03/16 09:31:22;;;;;;;2.30;2.13;;;10.00;96.90;9.40;99051.00;;;;5113596;28;20679;-73
2022/03/16 09:33:52;;;;;;;3.53;3.23;;;10.00;96.00;9.50;99054.00;;;;5113921;28;20209;-70
2022/03/16 09:36:18;;;;;;;2.83;2.63;;;10.10;95.40;9.70;99058.00;;;;5113928;28;20200;-70
2022/03/16 09:38:45;;;;;;;2.57;2.20;;;10.20;95.60;9.70;99056.00;;;;5113844;28;20587;-71
2022/03/16 09:41:12;;;;;;;3.20;2.77;;;10.30;95.00;9.80;99062.00;;;;5113669;28;20370;-70
2022/03/16 09:43:40;;;;;;;3.03;2.80;;;10.40;94.80;9.80;99054.00;;;;5113677;28;20214;-70
2022/03/16 09:46:10;;;;;;;2.30;2.20;;;10.40;94.50;9.90;99053.00;;;;5113810;28;20202;-70
2022/03/16 09:48:39;;;;;;;3.73;3.40;;;10.50;94.40;10.10;99054.00;;;;5116750;28;20277;-70
2022/03/16 09:51:07;;;;;;;2.87;2.70;;;10.50;93.90;10.20;99054.00;;;;5117206;28;20221;-70
2022/03/16 09:53:33;;;;;;;2.50;2.37;;;10.70;93.30;10.10;99055.00;;;;5117451;28;20225;-70
2022/03/16 09:56:00;;;;;;;2.50;2.30;;;10.70;92.40;10.10;99047.00;;;;5099259;28;20202;-70
2022/03/16 09:58:28;;;;;;;1.73;1.63;;;10.70;92.10;10.10;99052.00;;;;5117220;28;20198;-70
2022/03/16 10:00:57;;;;;;;5.63;2.20;;;10.70;91.70;10.10;99048.00;;;;5117110;28;20217;-70
2022/03/16 10:03:28;;;;;;;2.17;2.03;;;10.70;92.60;10.10;99054.00;;;;5117238;28;20205;-70
2022/03/16 10:05:56;;;;;;;3.07;2.57;;;10.70;92.30;10.20;99040.00;;;;5099336;28;20202;-71
2022/03/16 10:08:30;;;;;;;3.33;2.50;;;10.80;92.20;10.30;99048.00;;;;5117357;28;20646;-71
2022/03/16 10:13:57;;;;;;;2.07;1.93;;;10.90;90.50;10.20;99036.00;;;;5117139;28;20194;-72
2022/03/16 10:16:24;;;;;;;2.97;2.67;;;10.80;91.60;10.40;99027.00;;;;5117040;28;20281;-70
2022/03/16 10:18:56;;;;;;;2.33;2.20;;;10.90;91.40;10.50;99034.00;;;;5117178;28;20244;-72
2022/03/16 10:21:30;;;;;;;1.83;1.60;;;11.00;90.60;10.60;99021.00;;;;5116928;28;20218;-72
2022/03/16 10:24:03;;;;;;;5.37;2.73;;;11.10;90.20;10.60;99021.00;;;;5116937;28;20300;-70
2022/03/16 10:26:30;;;;;;;3.20;3.00;;;11.20;89.40;10.80;99021.00;;;;5117055;28;20197;-71
2022/03/16 10:29:03;;;;;;;4.13;3.07;;;11.30;89.10;10.90;99020.00;;;;5116997;28;20713;-70
2022/03/16 10:31:30;;;;;;;2.60;2.37;;;11.40;88.00;11.10;99019.00;;;;5116825;28;20250;-71
2022/03/16 10:34:03;;;;;;;2.33;2.23;;;11.60;88.20;11.10;99024.00;;;;5116614;28;20653;-71
2022/03/16 10:36:39;;;;;;;3.87;3.47;;;11.70;88.10;11.30;99028.00;;;;5116600;28;20717;-71
2022/03/16 10:39:07;;;;;;;3.20;2.90;;;11.80;87.40;11.50;99014.00;;;;5116510;28;20201;-72
2022/03/16 10:47:12;;;;;;;2.43;2.23;;;12.30;85.50;11.90;99016.00;;;;5116515;28;20280;-71
2022/03/16 10:49:38;;;;;;;7.03;2.30;;;12.40;85.00;12.10;99002.00;;;;5116507;28;20225;-70
2022/03/16 10:52:14;;;;;;;5.93;2.03;;;12.50;85.80;12.30;99007.00;;;;5116755;28;20222;-72
2022/03/16 10:54:42;;;;;;;1.50;1.47;;;12.70;85.30;12.50;99005.00;;;;5098737;28;20648;-70
2022/03/16 10:57:11;;;;;;;2.30;2.20;;;12.90;84.00;12.60;98997.00;;;;5116184;28;20531;-70
2022/03/16 10:59:39;;;;;;;7.17;2.53;;;13.00;83.50;12.90;99002.00;;;;5116397;28;20285;-70
2022/03/16 11:02:12;;;;;;;3.37;2.87;;;13.20;81.50;12.90;99005.00;;;;5098967;28;20329;-70
2022/03/16 11:04:40;;;;;;;2.30;2.20;;;13.30;78.70;12.90;99013.00;;;;5118286;28;20209;-70
2022/03/16 11:07:08;;;;;;;1.73;1.63;;;13.40;77.50;13.10;98999.00;;;;5116749;28;20269;-70
2022/03/16 11:09:37;;;;;;;1.83;1.73;;;13.50;77.80;13.20;98995.00;;;;5116471;28;20668;-71
2022/03/16 11:14:54;;;;;;;1.90;1.80;;;13.80;74.40;13.50;98986.00;;;;5117379;28;20674;-74
2022/03/16 11:17:22;;;;;;;2.87;2.50;;;13.90;74.60;13.80;98978.00;;;;5120633;28;20652;-72
2022/03/16 11:19:52;;;;;;;2.57;2.37;;;14.10;72.10;13.90;98980.00;;;;5116399;28;20699;-71